Beaumont, TX

12:06 PM CDT on March 30, 2015 (GMT -0500)
BeaumontEOC | | Change Station
CLOSE
Current Station
Personal Weather Station
Location: Beaumont, TX
Elevation: 33 ft
Nearby Weather Stations
Active Advisory: Flood Warning

Elev 33 ft 30.08 °N, 94.10 °W | Updated 41 seconds ago

Mostly Cloudy
Mostly Cloudy
76.6 °F
Feels Like 78 °F
N
7.4
Wind Variable Wind from North
Gusts 8.0 mph

Today
High -- | Low -- °F
--% Chance of Precip.
Yesterday
High -- | Low -- °F
Precip. -- in
7:08 AM 7:33 PM
Waxing Gibbous, 81% visible
Pressure 30.23 in
Visibility 10.0 miles
Clouds Scattered Clouds 3500 ft
Mostly Cloudy 4200 ft
Heat Index 78 °F
Dew Point 64 °F
Humidity 65%
Rainfall 0.00 in
Snow Depth Not available.
UV 0.0 out of 12
Pollen 10.20 out of 12
Air Quality Not available.
Flu Activity Not available.
METAR KBMT 301655Z AUTO 24008KT 10SM SCT035 BKN042 25/17 A3023 RMK AO2 T02460165

More Conditions Fewer Conditions

Pressure 30.23 in
Visibility 10.0 miles
Clouds Scattered Clouds 3500 ft
Mostly Cloudy 4200 ft
Heat Index 78 °F
Dew Point 64 °F
Humidity 65%
Rainfall 0.00 in
Snow Depth Not available.
UV 0.0 out of 12
Pollen 10.20 out of 12
Air Quality Not available.
Flu Activity Not available.
METAR KBMT 301655Z AUTO 24008KT 10SM SCT035 BKN042 25/17 A3023 RMK AO2 T02460165

More Conditions Fewer Conditions

10-Day Weather Forecast

Almanac

Astronomy

Mar. 30, 2015 Rise Set
Actual Time
Civil Twilight
Nautical Twilight
Astronomical Twilight
Moon
Length of Visible Light
Length of Day
Tomorrow will be .
, % of the Moon is Illuminated

Today's Extremes

State Highs State Lows

Community

WunderPhotos

Upload Photos

1,809,539 photos uploaded!

WunderBlogs® & News

Nearby

Air Quality

  Air Quality AQ Index Pollutant
Not available.

Snow Depth

Station Depth Elevation

Earthquake Activity

City Distance Mag. Time & Date
Minimum magnitude displayed is 2.5.

Coastal Water Temperatures

Place Temperature

Stations

Nearby Weather Stations

Station Location Temp. Windchill Dew Point Humidity Wind Precip. Elev Updated Type
                   
Flood Warning
Statement as of 8:47 AM CDT on March 30, 2015

... Flood Warning extended until late tonight... the Flood Warning
continues for
the Pine Island Bayou near Sour Lake.
* Until late tonight... or until the warning is cancelled.
* At 7:45 am Monday the stage was 25.4 feet.
* Minor flooding is occurring and minor flooding is forecast.
* Flood stage is 25.0 feet.
* Forecast... the river will continue to fall to below flood stage by
early this evening.
* Impact... at stages near 25.0 feet... water inundates roads in
lowland areas near the river. Low spots on old Sour Lake Road are
under water.


Lat... Lon 3012 9445 3024 9423 3021 9407 3013 9406 3004 9445